Time;durP1;ratioP1;P1;durP2;ratioP2;P2;SDS_P1;SDS_P2;PMS_P1;PMS_P2;Temp;Humidity;BMP_temperature;BMP_pressure;BME280_temperature;BME280_humidity;BME280_pressure;Samples;Min_cycle;Max_cycle;Signal;HPM_P1;HPM_P2
2021/01/11 00:01:43;;;;;;;52.17;20.00;;;;;;;-6.42;89.33;99448.69;4950546;28;20023;-74
2021/01/11 00:04:11;;;;;;;53.20;18.73;;;;;;;-6.26;89.36;99462.75;4948894;29;20394;-74
2021/01/11 00:06:38;;;;;;;46.70;16.67;;;;;;;-6.52;88.94;99445.69;4954497;28;20031;-74
2021/01/11 00:09:04;;;;;;;30.13;12.40;;;;;;;-6.32;89.35;99465.69;4954932;28;20050;-74
2021/01/11 00:11:32;;;;;;;27.47;11.00;;;;;;;-6.31;89.27;99450.75;4955934;28;20121;-74
2021/01/11 00:13:57;;;;;;;27.27;10.63;;;;;;;-6.47;89.06;99454.22;4974065;28;20023;-74
2021/01/11 00:16:22;;;;;;;26.52;11.10;;;;;;;-6.40;89.53;99471.34;4975090;28;20050;-74
2021/01/11 00:18:48;;;;;;;29.27;11.20;;;;;;;-6.32;89.54;99475.38;4954031;29;20031;-74
2021/01/11 00:21:16;;;;;;;30.03;11.90;;;;;;;-6.45;89.64;99439.16;4953496;28;20066;-74
2021/01/11 00:23:41;;;;;;;24.35;11.23;;;;;;;-6.14;90.11;99458.59;4965001;28;20478;-74
2021/01/11 00:26:09;;;;;;;29.17;11.43;;;;;;;-5.99;89.86;99465.69;4952196;28;20035;-74
2021/01/11 00:28:35;;;;;;;26.10;10.27;;;;;;;-5.94;89.81;99456.69;4953495;29;20031;-74
2021/01/11 00:31:00;;;;;;;25.53;11.60;;;;;;;-5.77;89.35;99460.06;4940158;28;20439;-74
2021/01/11 00:33:25;;;;;;;25.40;11.67;;;;;;;-5.71;88.95;99451.00;4942165;29;20031;-74
2021/01/11 00:35:51;;;;;;;25.55;10.75;;;;;;;-5.68;89.06;99436.78;4954004;29;20035;-74
2021/01/11 00:38:16;;;;;;;26.25;10.70;;;;;;;-5.38;87.73;99468.47;4964303;28;20040;-74
2021/01/11 00:40:41;;;;;;;23.55;10.70;;;;;;;-5.38;87.71;99457.94;4973750;28;20019;-74
2021/01/11 00:43:06;;;;;;;23.67;10.45;;;;;;;-5.49;86.79;99442.72;4955239;28;20061;-74
2021/01/11 00:45:32;;;;;;;29.67;10.43;;;;;;;-5.44;87.43;99451.22;4943763;29;20024;-74
2021/01/11 00:47:57;;;;;;;27.30;11.02;;;;;;;-5.79;87.74;99418.91;4933716;29;20114;-74
2021/01/11 00:50:22;;;;;;;27.10;11.95;;;;;;;-5.62;88.03;99457.53;4951369;28;20039;-74
2021/01/11 00:52:48;;;;;;;23.80;10.55;;;;;;;-5.88;88.18;99445.78;4951211;28;20031;-75
2021/01/11 00:55:13;;;;;;;26.70;10.43;;;;;;;-5.78;88.27;99446.97;4932476;29;20083;-74
2021/01/11 00:57:39;;;;;;;28.27;11.30;;;;;;;-5.94;88.74;99449.63;4952150;29;20027;-74
2021/01/11 01:00:08;;;;;;;22.63;10.43;;;;;;;-6.02;88.80;99443.94;4954836;29;20038;-75
2021/01/11 01:02:33;;;;;;;26.25;10.40;;;;;;;-6.21;89.15;99434.41;4954664;28;20038;-75
2021/01/11 01:04:58;;;;;;;29.15;12.48;;;;;;;-6.40;88.71;99423.13;4953016;29;20027;-75
2021/01/11 01:07:24;;;;;;;30.00;11.70;;;;;;;-6.51;88.84;99434.22;4953404;29;20378;-74
2021/01/11 01:09:49;;;;;;;36.57;12.00;;;;;;;-6.44;88.91;99421.59;4954508;29;20030;-74
2021/01/11 01:12:14;;;;;;;27.93;11.57;;;;;;;-6.37;89.06;99437.91;4943706;29;20426;-74
2021/01/11 01:14:40;;;;;;;25.90;12.10;;;;;;;-6.44;88.76;99447.94;4949952;28;20035;-74
2021/01/11 01:17:05;;;;;;;29.40;11.30;;;;;;;-6.54;88.93;99454.59;4954364;29;20035;-74
2021/01/11 01:19:30;;;;;;;26.83;11.40;;;;;;;-6.72;88.71;99432.72;4940572;29;20158;-74
2021/01/11 01:21:55;;;;;;;28.37;11.33;;;;;;;-6.81;88.72;99451.59;4936785;29;20073;-74
2021/01/11 01:24:21;;;;;;;29.43;11.47;;;;;;;-6.91;89.21;99459.97;4947010;29;20027;-75
2021/01/11 01:26:46;;;;;;;25.80;11.13;;;;;;;-6.95;89.39;99468.91;4952768;28;20398;-74
2021/01/11 01:29:11;;;;;;;26.17;10.97;;;;;;;-6.82;89.46;99470.94;4942853;29;20016;-74
2021/01/11 01:31:36;;;;;;;25.83;10.47;;;;;;;-7.05;89.57;99444.00;4941096;29;20027;-75
2021/01/11 01:34:02;;;;;;;28.33;10.38;;;;;;;-7.06;89.68;99463.34;4947118;29;20032;-74
2021/01/11 01:36:27;;;;;;;30.43;11.77;;;;;;;-7.17;90.25;99447.28;4980398;28;20035;-74
2021/01/11 01:38:53;;;;;;;25.53;10.33;;;;;;;-7.24;90.41;99437.97;4981342;28;20039;-76
2021/01/11 01:41:18;;;;;;;29.57;12.10;;;;;;;-7.04;90.70;99472.03;4970973;28;20031;-75
2021/01/11 01:43:43;;;;;;;25.57;10.63;;;;;;;-7.01;90.68;99479.75;4958387;29;20041;-76
2021/01/11 01:46:18;;;;;;;23.03;10.50;;;;;;;-7.01;90.62;99479.75;4968605;28;20054;-76
2021/01/11 01:48:44;;;;;;;26.57;10.63;;;;;;;-7.20;90.68;99457.94;4968611;28;20034;-75
2021/01/11 01:51:10;;;;;;;25.40;10.73;;;;;;;-7.25;90.55;99454.69;4993149;28;20031;-74
2021/01/11 01:53:36;;;;;;;29.30;10.50;;;;;;;-7.30;90.53;99462.78;4958008;28;20023;-75
2021/01/11 01:56:02;;;;;;;31.47;11.50;;;;;;;-7.22;90.57;99476.41;4964637;29;20034;-74
2021/01/11 01:58:27;;;;;;;24.67;9.97;;;;;;;-7.37;90.92;99451.72;4948167;29;20038;-75
2021/01/11 02:00:53;;;;;;;24.70;10.17;;;;;;;-7.23;91.30;99469.47;4958514;29;20087;-74
2021/01/11 02:03:19;;;;;;;26.10;11.10;;;;;;;-7.22;91.18;99467.69;4944377;29;20024;-74
2021/01/11 02:05:44;;;;;;;29.05;11.88;;;;;;;-7.44;91.43;99424.03;4951058;29;20078;-74
2021/01/11 02:08:19;;;;;;;29.00;12.05;;;;;;;-7.26;90.79;99459.06;4957683;28;20077;-74
2021/01/11 02:10:50;;;;;;;33.38;11.52;;;;;;;-6.99;91.02;99456.88;4957596;28;20019;-74
2021/01/11 02:13:30;;;;;;;28.27;10.30;;;;;;;-7.00;90.25;99454.31;4956916;29;20135;-74
2021/01/11 02:16:23;;;;;;;29.42;11.77;;;;;;;-7.11;90.16;99442.53;4952569;29;20063;-74
2021/01/11 02:19:13;;;;;;;23.90;11.03;;;;;;;-7.22;90.45;99452.75;4939313;29;20682;-74
2021/01/11 02:21:50;;;;;;;29.07;12.70;;;;;;;-7.34;90.20;99454.19;4952281;29;20578;-74
2021/01/11 02:24:31;;;;;;;27.23;11.03;;;;;;;-7.16;90.62;99451.59;4941497;29;20070;-74
2021/01/11 02:27:28;;;;;;;27.35;10.45;;;;;;;-7.27;89.93;99449.50;4952522;29;20371;-74
2021/01/11 02:30:02;;;;;;;26.03;10.77;;;;;;;-7.23;89.94;99447.56;4969105;28;20027;-74
2021/01/11 02:32:29;;;;;;;26.40;10.75;;;;;;;-7.36;90.16;99452.56;4955791;29;20019;-74
2021/01/11 02:34:57;;;;;;;26.42;11.63;;;;;;;-7.41;90.29;99439.66;4954116;28;20031;-74
2021/01/11 02:37:24;;;;;;;31.30;11.45;;;;;;;-7.36;90.66;99435.03;4952178;29;20023;-74
2021/01/11 02:39:49;;;;;;;34.67;11.63;;;;;;;-7.44;90.16;99426.69;4937301;29;20031;-74
2021/01/11 02:42:15;;;;;;;26.43;10.27;;;;;;;-7.36;90.38;99447.28;4949754;29;20051;-74
2021/01/11 02:44:40;;;;;;;25.77;10.27;;;;;;;-7.46;90.07;99423.25;4956376;29;20071;-74
2021/01/11 02:47:05;;;;;;;27.35;12.55;;;;;;;-7.29;90.60;99427.69;4955043;29;20039;-74
2021/01/11 02:49:38;;;;;;;25.40;11.10;;;;;;;-7.32;90.31;99422.56;4951504;29;20474;-74
2021/01/11 02:52:42;;;;;;;29.60;11.70;;;;;;;-7.33;90.00;99450.66;4947104;29;20042;-74
2021/01/11 02:55:20;;;;;;;26.25;10.60;;;;;;;-7.46;90.15;99440.81;4955742;28;20494;-74
2021/01/11 02:58:02;;;;;;;23.80;8.38;;;;;;;-7.54;90.25;99449.06;4936948;29;20039;-74
2021/01/11 03:00:35;;;;;;;26.58;11.30;;;;;;;-7.58;90.05;99440.47;4941732;29;20031;-74
2021/01/11 03:03:04;;;;;;;24.57;10.60;;;;;;;-7.70;90.16;99420.06;4956420;28;20131;-74
2021/01/11 03:05:29;;;;;;;;;;;;;;;-7.43;90.32;99449.38;4947274;28;20058;-74
2021/01/11 03:07:56;;;;;;;30.70;12.00;;;;;;;-7.45;90.36;99440.72;4937172;29;19910;-74
2021/01/11 03:10:22;;;;;;;26.33;10.70;;;;;;;-7.59;90.22;99435.28;4935807;29;20118;-74
2021/01/11 03:12:48;;;;;;;25.13;11.63;;;;;;;-7.62;90.36;99435.41;4943319;29;20073;-74
2021/01/11 03:15:14;;;;;;;22.80;11.20;;;;;;;-7.56;90.43;99445.66;4970451;28;20042;-74
2021/01/11 03:17:39;;;;;;;29.77;11.77;;;;;;;-7.72;90.63;99399.09;4973575;28;20066;-74
2021/01/11 03:20:05;;;;;;;25.70;10.57;;;;;;;-7.44;89.92;99444.19;4955829;29;20024;-74
2021/01/11 03:22:30;;;;;;;29.37;12.00;;;;;;;-7.72;89.72;99420.09;4960621;29;20091;-74
2021/01/11 03:24:56;;;;;;;30.05;11.57;;;;;;;-7.80;90.12;99421.41;4976254;29;20031;-74
2021/01/11 03:27:21;;;;;;;22.80;9.67;;;;;;;-7.79;90.05;99434.44;4977568;29;20043;-74
2021/01/11 03:29:46;;;;;;;29.10;11.90;;;;;;;-8.00;90.33;99411.84;4976902;28;20123;-74
2021/01/11 03:32:11;;;;;;;30.33;11.47;;;;;;;-7.71;90.56;99449.84;4977095;29;20026;-74
2021/01/11 03:34:37;;;;;;;24.70;10.67;;;;;;;-7.79;90.88;99439.69;4976513;29;20043;-74
2021/01/11 03:37:02;;;;;;;23.37;10.23;;;;;;;-7.76;91.00;99450.06;4977230;29;20031;-74
2021/01/11 03:39:27;;;;;;;25.80;10.33;;;;;;;-7.78;90.83;99454.56;4966151;29;20105;-74
2021/01/11 03:41:52;;;;;;;25.83;11.70;;;;;;;-7.73;90.84;99421.03;4959097;29;20007;-74
2021/01/11 03:44:18;;;;;;;27.00;12.17;;;;;;;-7.50;89.98;99434.84;4957374;29;20046;-74
2021/01/11 03:46:43;;;;;;;30.20;11.07;;;;;;;-7.60;89.81;99420.44;4964624;29;20031;-74
2021/01/11 03:49:08;;;;;;;28.67;10.80;;;;;;;-7.57;89.79;99434.28;4973897;28;20050;-74
2021/01/11 03:51:34;;;;;;;29.80;10.93;;;;;;;-7.61;89.44;99426.63;4955365;28;20045;-75
2021/01/11 03:53:59;;;;;;;27.03;10.90;;;;;;;-7.61;89.00;99416.13;4970368;28;20035;-75
2021/01/11 03:56:24;;;;;;;25.80;10.83;;;;;;;-7.73;88.80;99428.06;4946670;28;20074;-74
2021/01/11 03:58:49;;;;;;;23.97;10.23;;;;;;;-7.77;89.09;99455.41;4947111;28;20029;-75
2021/01/11 04:01:15;;;;;;;23.87;10.57;;;;;;;-7.80;89.58;99448.53;4957876;29;20027;-76
2021/01/11 04:03:40;;;;;;;29.87;11.30;;;;;;;-8.00;90.15;99436.31;4971750;29;20034;-75
2021/01/11 04:06:07;;;;;;;26.50;11.30;;;;;;;-7.84;90.95;99423.31;4967075;29;20039;-75
2021/01/11 04:08:32;;;;;;;25.03;10.40;;;;;;;-7.72;91.11;99430.63;4967386;29;20039;-75
2021/01/11 04:10:58;;;;;;;24.60;10.10;;;;;;;-7.80;91.05;99403.88;4989493;28;20038;-75
2021/01/11 04:13:23;;;;;;;25.73;10.77;;;;;;;-7.85;90.67;99419.00;4969786;28;20035;-75
2021/01/11 04:15:48;;;;;;;24.43;11.27;;;;;;;-7.92;90.37;99425.44;4950887;29;20032;-74
2021/01/11 04:18:14;;;;;;;28.30;11.33;;;;;;;-8.03;90.51;99414.59;4936680;29;20032;-74
2021/01/11 04:20:39;;;;;;;24.23;10.93;;;;;;;-8.03;90.14;99425.09;4952306;29;20097;-74
2021/01/11 04:23:05;;;;;;;24.30;11.53;;;;;;;-8.06;89.94;99420.00;4955126;29;20031;-74
2021/01/11 04:25:31;;;;;;;22.13;10.07;;;;;;;-8.09;89.79;99435.91;4954807;28;20043;-74
2021/01/11 04:27:59;;;;;;;21.33;9.80;;;;;;;-8.22;89.82;99428.59;4955453;28;20027;-74
2021/01/11 04:30:25;;;;;;;26.47;10.50;;;;;;;-8.30;90.04;99427.25;4952609;29;20030;-74
2021/01/11 04:32:52;;;;;;;28.17;10.37;;;;;;;-8.18;90.35;99445.88;4935217;29;20082;-74
2021/01/11 04:35:19;;;;;;;24.23;10.03;;;;;;;-8.10;90.57;99449.94;4946726;29;20035;-74
2021/01/11 04:37:44;;;;;;;24.67;10.53;;;;;;;-8.16;91.36;99451.06;4944588;28;20033;-75
2021/01/11 04:40:10;;;;;;;29.70;11.67;;;;;;;-8.04;91.83;99444.38;4936349;29;20028;-74
2021/01/11 04:42:47;;;;;;;32.10;11.70;;;;;;;-8.05;92.07;99432.19;4966141;28;20031;-74
2021/01/11 04:45:20;;;;;;;30.67;11.23;;;;;;;-7.96;92.17;99447.53;4955038;29;20047;-74
2021/01/11 04:47:52;;;;;;;26.87;11.23;;;;;;;-8.07;92.10;99434.88;4936453;29;20035;-77
2021/01/11 04:50:18;;;;;;;27.03;11.27;;;;;;;-8.14;91.82;99422.13;4948767;29;20466;-78
2021/01/11 04:52:45;;;;;;;33.53;11.37;;;;;;;-8.26;92.25;99411.25;4950033;28;20031;-74
2021/01/11 04:55:13;;;;;;;31.87;11.20;;;;;;;-8.21;91.63;99422.41;4955379;28;20028;-74
2021/01/11 04:57:57;;;;;;;26.80;10.97;;;;;;;-8.10;91.39;99428.94;4951555;28;20059;-77
2021/01/11 05:00:29;;;;;;;28.57;10.83;;;;;;;-8.07;90.87;99436.66;4949149;28;20028;-76
2021/01/11 05:02:59;;;;;;;31.90;11.97;;;;;;;-8.18;90.68;99427.50;4950084;28;20023;-73
2021/01/11 05:05:26;;;;;;;39.57;13.50;;;;;;;-8.29;90.62;99416.66;4952676;29;20050;-76
2021/01/11 05:07:52;;;;;;;31.17;11.73;;;;;;;-8.30;91.04;99422.84;4954985;28;20031;-75
2021/01/11 05:10:21;;;;;;;29.70;11.70;;;;;;;-8.86;91.34;99326.56;4958471;28;20038;-74
2021/01/11 05:13:01;;;;;;;30.10;10.70;;;;;;;-8.47;90.86;99386.03;4954032;29;20032;-78
2021/01/11 05:15:27;;;;;;;;;;;;;;;-8.23;91.17;99445.22;4938593;29;20028;-76
2021/01/11 05:17:53;;;;;;;28.10;10.40;;;;;;;-8.20;91.00;99429.38;4956795;29;19915;-75
2021/01/11 05:20:26;;;;;;;23.97;9.23;;;;;;;-8.22;90.66;99427.72;4957627;28;20031;-75
2021/01/11 05:23:16;;;;;;;23.77;10.20;;;;;;;-8.29;90.29;99435.03;4965317;28;20027;-78
2021/01/11 05:25:44;;;;;;;24.10;10.73;;;;;;;-8.24;90.99;99427.78;4963174;28;20114;-72
2021/01/11 05:28:17;;;;;;;26.23;10.53;;;;;;;-8.40;90.78;99422.41;4958233;29;20524;-74
2021/01/11 05:30:44;;;;;;;30.03;11.27;;;;;;;-8.24;91.14;99438.28;4963649;28;20087;-77
2021/01/11 05:33:20;;;;;;;27.10;10.47;;;;;;;-8.37;90.70;99437.16;4952301;28;20266;-78
2021/01/11 05:35:47;;;;;;;32.60;10.70;;;;;;;-8.27;91.25;99445.47;4957933;28;20038;-75
2021/01/11 05:38:15;;;;;;;30.50;11.40;;;;;;;-8.33;91.43;99437.84;4948467;28;20028;-78
2021/01/11 05:40:40;;;;;;;24.33;9.33;;;;;;;-8.44;91.01;99436.59;4958930;29;20113;-78
2021/01/11 05:43:05;;;;;;;27.37;9.90;;;;;;;-8.48;91.35;99426.31;4957855;29;20039;-80
2021/01/11 05:45:33;;;;;;;24.17;10.30;;;;;;;-8.38;91.38;99433.69;4954913;29;20031;-78
2021/01/11 05:48:29;;;;;;;30.73;11.53;;;;;;;-8.15;91.74;99460.63;4941827;29;20114;-77
2021/01/11 05:51:01;;;;;;;25.13;10.33;;;;;;;-8.30;91.77;99445.59;4977391;28;20027;-78
2021/01/11 05:53:27;;;;;;;24.87;10.93;;;;;;;-8.28;91.28;99457.72;4961301;28;20027;-74
2021/01/11 05:55:54;;;;;;;32.50;11.33;;;;;;;-8.26;91.56;99450.63;4953807;29;20028;-71
2021/01/11 05:58:20;;;;;;;27.07;10.70;;;;;;;-8.05;91.24;99463.69;4947683;28;20070;-76
2021/01/11 06:00:46;;;;;;;24.33;9.27;;;;;;;-7.89;90.82;99469.09;4955992;28;20035;-73
2021/01/11 06:03:13;;;;;;;24.33;10.13;;;;;;;-7.79;90.32;99473.00;4947630;28;20031;-74
2021/01/11 06:05:38;;;;;;;29.90;12.33;;;;;;;-7.95;90.27;99450.06;4957285;28;20030;-75
2021/01/11 06:08:06;;;;;;;35.37;13.07;;;;;;;-7.93;89.69;99442.13;4953897;28;20461;-77
2021/01/11 06:10:32;;;;;;;36.50;14.87;;;;;;;-7.68;89.36;99456.72;4954295;28;20019;-73
2021/01/11 06:12:57;;;;;;;34.37;13.37;;;;;;;-7.81;88.47;99441.53;4952153;28;20086;-73
2021/01/11 06:15:25;;;;;;;32.07;12.40;;;;;;;-7.86;88.32;99453.19;4955642;28;20031;-73
2021/01/11 06:17:55;;;;;;;33.43;12.80;;;;;;;-8.04;88.73;99445.28;4948065;29;20034;-76
2021/01/11 06:20:27;;;;;;;27.00;11.30;;;;;;;-8.12;88.20;99446.53;4954974;29;20273;-74
2021/01/11 06:22:53;;;;;;;25.80;10.97;;;;;;;-8.00;88.45;99467.81;4951751;28;20062;-72
2021/01/11 06:25:24;;;;;;;28.20;12.17;;;;;;;-8.12;88.83;99446.53;4948831;29;20071;-72
2021/01/11 06:27:52;;;;;;;32.97;12.07;;;;;;;-8.21;89.31;99456.53;4955676;29;20032;-75
2021/01/11 06:30:33;;;;;;;31.63;12.87;;;;;;;-8.23;90.07;99458.34;4951482;28;20486;-69
2021/01/11 06:33:13;;;;;;;30.80;13.03;;;;;;;-8.23;90.10;99458.34;4951543;28;20043;-69
2021/01/11 06:35:49;;;;;;;27.23;10.83;;;;;;;-8.21;89.49;99453.06;4953621;28;20054;-69
2021/01/11 06:38:18;;;;;;;30.23;11.90;;;;;;;-8.08;89.13;99455.97;4939406;29;20464;-73
2021/01/11 06:40:47;;;;;;;28.67;9.85;;;;;;;-8.16;89.24;99451.06;4951540;28;20114;-74
2021/01/11 06:43:14;;;;;;;29.40;10.43;;;;;;;-8.13;89.31;99461.41;4957841;28;20031;-74
2021/01/11 06:45:41;;;;;;;31.87;11.10;;;;;;;-8.03;89.25;99457.47;4961843;28;20026;-72
2021/01/11 06:48:08;;;;;;;30.20;11.00;;;;;;;-8.03;89.45;99433.84;4947737;28;20109;-72
2021/01/11 06:50:34;;;;;;;34.23;10.73;;;;;;;-7.71;89.75;99463.81;4956202;29;20027;-74
2021/01/11 06:53:01;;;;;;;32.00;11.70;;;;;;;-7.71;88.80;99463.81;4963458;28;20031;-75
2021/01/11 06:55:27;;;;;;;29.40;11.63;;;;;;;-7.71;88.99;99448.06;4952988;29;20371;-73
2021/01/11 06:58:00;;;;;;;25.13;10.57;;;;;;;-7.77;88.99;99452.78;4953088;29;20089;-70
2021/01/11 07:00:32;;;;;;;28.97;12.50;;;;;;;-7.80;88.97;99453.78;4938951;28;20042;-76
2021/01/11 07:02:57;;;;;;;32.50;12.07;;;;;;;-7.91;88.95;99437.69;4936732;29;20055;-76
2021/01/11 07:05:35;;;;;;;26.27;10.97;;;;;;;-7.85;88.83;99460.16;4936362;29;20108;-75
2021/01/11 07:08:16;;;;;;;23.60;10.77;;;;;;;-7.96;88.80;99458.88;4953487;28;20051;-76
2021/01/11 07:10:45;;;;;;;26.87;10.47;;;;;;;-8.00;88.21;99453.84;4941324;29;20492;-69
2021/01/11 07:13:19;;;;;;;;;;;;;;;-7.98;88.18;99458.09;4955798;29;20026;-70
2021/01/11 07:15:50;;;;;;;19.53;8.87;;;;;;;-7.98;87.46;99465.97;4956020;28;19911;-65
2021/01/11 07:18:37;;;;;;;26.13;9.17;;;;;;;-8.04;87.83;99462.78;4937406;29;20051;-69
2021/01/11 07:21:26;;;;;;;27.30;10.00;;;;;;;-8.13;88.13;99465.81;4963821;29;20027;-74
2021/01/11 07:23:55;;;;;;;19.08;8.55;;;;;;;-8.13;88.03;99471.06;4976490;29;20058;-74
2021/01/11 07:26:23;;;;;;;24.57;9.17;;;;;;;-8.02;87.97;99472.28;4973687;28;20045;-72
2021/01/11 07:28:59;;;;;;;19.20;8.07;;;;;;;-8.09;87.67;99480.53;4968062;28;20082;-69
2021/01/11 07:31:33;;;;;;;22.43;9.60;;;;;;;-8.06;87.93;99483.88;4989618;28;20015;-71
2021/01/11 07:34:06;;;;;;;22.47;8.80;;;;;;;-7.99;88.11;99479.16;4962520;28;20027;-75
2021/01/11 07:36:36;;;;;;;26.47;10.53;;;;;;;-7.90;88.04;99457.75;4958249;28;20028;-77
2021/01/11 07:39:26;;;;;;;25.60;10.57;;;;;;;-7.76;87.94;99473.69;4939262;29;20077;-75
2021/01/11 07:41:58;;;;;;;28.87;11.50;;;;;;;-7.61;88.01;99468.66;4936591;29;20049;-75
2021/01/11 07:44:25;;;;;;;25.63;10.33;;;;;;;-7.61;86.95;99463.41;4954413;29;20027;-76
2021/01/11 07:46:54;;;;;;;26.33;10.83;;;;;;;-7.56;87.09;99467.53;4955596;28;20702;-73
2021/01/11 07:49:19;;;;;;;17.63;7.97;;;;;;;-7.32;86.96;99490.91;4955915;28;20102;-74
2021/01/11 07:51:46;;;;;;;25.50;10.33;;;;;;;-7.37;86.76;99472.72;4957795;28;20109;-70
2021/01/11 07:54:19;;;;;;;25.80;10.67;;;;;;;-7.30;86.53;99463.63;4953198;29;20148;-71
2021/01/11 07:56:47;;;;;;;27.03;11.07;;;;;;;-6.98;86.17;99494.53;4955710;28;20031;-72
2021/01/11 07:59:12;;;;;;;23.50;10.57;;;;;;;-6.80;85.85;99508.56;4945296;28;20144;-71
2021/01/11 08:01:40;;;;;;;25.87;10.90;;;;;;;-6.63;85.36;99492.75;4961296;28;20035;-71
2021/01/11 08:04:06;;;;;;;24.13;10.03;;;;;;;-6.43;85.35;99500.47;4944259;28;20386;-71
2021/01/11 08:06:43;;;;;;;24.93;10.00;;;;;;;-6.36;84.95;99505.44;4952359;28;20060;-71
2021/01/11 08:09:10;;;;;;;28.73;11.47;;;;;;;-6.14;84.76;99492.00;4950310;28;20053;-71
2021/01/11 08:11:35;;;;;;;29.87;11.23;;;;;;;-6.03;84.17;99489.63;4942400;28;20035;-71
2021/01/11 08:14:05;;;;;;;32.90;12.67;;;;;;;-6.06;83.19;99477.47;4948967;28;20034;-71
2021/01/11 08:16:31;;;;;;;43.90;14.85;;;;;;;-5.69;83.23;99472.81;4958953;28;20019;-73
2021/01/11 08:19:03;;;;;;;49.50;16.63;;;;;;;-5.69;82.23;99457.00;4961026;28;20031;-78
2021/01/11 08:21:28;;;;;;;34.23;14.80;;;;;;;-5.82;81.74;99474.41;4942777;28;20028;-78
2021/01/11 08:24:00;;;;;;;36.50;14.73;;;;;;;-5.94;81.55;99462.81;4943699;29;20118;-78
2021/01/11 08:26:26;;;;;;;35.47;13.60;;;;;;;-5.54;83.15;99497.50;4955350;28;20019;-77
2021/01/11 08:28:53;;;;;;;33.85;12.63;;;;;;;-5.22;82.73;99502.75;4952298;29;20094;-76
2021/01/11 08:31:20;;;;;;;27.67;11.77;;;;;;;-4.39;82.33;99493.50;4955430;28;20490;-75
2021/01/11 08:33:46;;;;;;;31.77;11.07;;;;;;;-3.02;76.21;99501.66;4957423;28;20050;-76
2021/01/11 08:36:23;;;;;;;25.25;10.75;;;;;;;-2.01;71.84;99454.25;4957469;28;20020;-80
2021/01/11 08:39:13;;;;;;;26.65;10.27;;;;;;;-1.47;69.25;99477.78;4956469;28;20031;-76
2021/01/11 08:41:41;;;;;;;24.83;10.85;;;;;;;-1.02;66.91;99458.59;4957585;29;20444;-77
2021/01/11 08:44:22;;;;;;;21.17;10.13;;;;;;;0.39;70.28;99459.25;4957400;29;20023;-78
2021/01/11 08:47:04;;;;;;;24.25;10.77;;;;;;;0.77;62.99;99478.44;4961148;28;20030;-73
2021/01/11 08:49:30;;;;;;;22.95;10.90;;;;;;;1.92;59.89;99456.34;4952395;29;20371;-76
2021/01/11 08:52:07;;;;;;;24.65;11.57;;;;;;;2.63;60.15;99472.38;4954369;28;20023;-76
2021/01/11 08:54:33;;;;;;;23.83;11.20;;;;;;;2.66;57.52;99455.22;4952476;28;20035;-74
2021/01/11 08:57:08;;;;;;;22.60;10.70;;;;;;;3.54;57.50;99464.19;4952951;29;20027;-78
2021/01/11 08:59:34;;;;;;;21.58;11.35;;;;;;;4.74;53.21;99455.44;4951025;29;20562;-78
2021/01/11 09:01:59;;;;;;;21.63;12.05;;;;;;;4.62;52.15;99452.13;4958461;29;20030;-78
2021/01/11 09:04:29;;;;;;;23.63;12.00;;;;;;;3.48;55.57;99465.59;4956320;29;20034;-73
2021/01/11 09:07:02;;;;;;;21.88;11.43;;;;;;;5.21;51.32;99466.88;4953653;28;20058;-75
2021/01/11 09:09:30;;;;;;;23.23;11.85;;;;;;;4.86;52.89;99478.38;4943495;28;20019;-73
2021/01/11 09:12:04;;;;;;;22.67;11.57;;;;;;;5.47;49.26;99499.13;4939077;29;20364;-75
2021/01/11 09:14:31;;;;;;;22.85;13.23;;;;;;;5.88;49.53;99490.59;4946704;28;20039;-78
2021/01/11 09:17:04;;;;;;;24.02;13.07;;;;;;;5.96;50.35;99511.31;4954907;29;20027;-79
2021/01/11 09:19:31;;;;;;;21.05;12.25;;;;;;;6.25;49.73;99495.72;4962244;28;20031;-74
2021/01/11 09:22:01;;;;;;;20.52;11.55;;;;;;;6.93;48.39;99486.81;4952825;29;20033;-71
2021/01/11 09:24:27;;;;;;;21.33;12.93;;;;;;;5.05;49.29;99491.66;4955982;29;20054;-75
2021/01/11 09:26:53;;;;;;;21.23;12.82;;;;;;;5.10;51.15;99490.38;4956259;28;20045;-79
2021/01/11 09:29:19;;;;;;;25.02;13.20;;;;;;;4.74;52.09;99483.13;4956870;28;20245;-76
2021/01/11 09:31:44;;;;;;;20.05;11.40;;;;;;;5.32;50.32;99484.56;4961841;28;20090;-80
2021/01/11 09:34:10;;;;;;;21.98;11.65;;;;;;;6.00;49.10;99475.06;4957818;28;20464;-73
2021/01/11 09:36:37;;;;;;;21.92;11.88;;;;;;;4.88;50.20;99473.72;4956361;28;20116;-78
2021/01/11 09:39:04;;;;;;;23.27;12.02;;;;;;;5.43;50.13;99492.38;4957839;28;20028;-71
2021/01/11 09:41:30;;;;;;;21.02;11.20;;;;;;;5.10;50.27;99472.44;4953639;28;20019;-76
2021/01/11 09:43:55;;;;;;;23.48;12.25;;;;;;;4.68;51.60;99498.94;4956308;28;20031;-79
2021/01/11 09:46:29;;;;;;;22.35;10.95;;;;;;;5.93;49.05;99499.00;4959879;29;20046;-80
2021/01/11 09:48:54;;;;;;;21.80;11.68;;;;;;;6.01;49.13;99491.03;4956356;28;20497;-78
2021/01/11 09:51:27;;;;;;;19.35;11.13;;;;;;;6.83;47.76;99472.66;4955913;29;20031;-78
2021/01/11 09:53:52;;;;;;;30.25;12.98;;;;;;;5.47;48.44;99483.00;4959384;28;20046;-80
2021/01/11 09:56:21;;;;;;;22.33;12.07;;;;;;;5.75;49.18;99482.94;4973916;28;20040;-73
2021/01/11 09:58:46;;;;;;;25.05;11.52;;;;;;;5.46;48.73;99477.81;4958674;28;20030;-73
2021/01/11 10:01:12;;;;;;;23.02;12.63;;;;;;;7.05;46.85;99473.03;4952607;28;20379;-82
2021/01/11 10:03:37;;;;;;;21.77;12.57;;;;;;;5.89;48.99;99473.47;4969654;28;20038;-76
2021/01/11 10:06:05;;;;;;;23.55;13.00;;;;;;;6.73;48.36;99482.69;4956365;29;20138;-71
2021/01/11 10:08:32;;;;;;;18.88;10.75;;;;;;;6.18;48.20;99467.81;4946681;28;20112;-74
2021/01/11 10:10:58;;;;;;;22.00;12.00;;;;;;;5.15;49.79;99474.66;4941110;29;20474;-78
2021/01/11 10:13:23;;;;;;;21.80;12.10;;;;;;;5.59;50.26;99482.81;4951980;29;20055;-76
2021/01/11 10:15:48;;;;;;;22.27;11.93;;;;;;;5.29;49.94;99476.81;4955848;29;20450;-74
2021/01/11 10:18:14;;;;;;;24.73;13.65;;;;;;;6.10;49.58;99451.63;4955822;29;20028;-74
2021/01/11 10:20:42;;;;;;;23.02;11.88;;;;;;;6.32;47.79;99461.84;4942045;29;20036;-73
2021/01/11 10:23:08;;;;;;;22.67;12.18;;;;;;;5.42;49.30;99485.34;4944703;29;20027;-75
2021/01/11 10:25:33;;;;;;;19.98;11.60;;;;;;;6.17;48.22;99484.09;4955340;29;20046;-74
2021/01/11 10:27:58;;;;;;;21.80;11.82;;;;;;;7.06;46.63;99467.50;4951167;28;20112;-76
2021/01/11 10:30:24;;;;;;;22.40;12.50;;;;;;;6.77;47.35;99468.78;4955749;28;20086;-77
2021/01/11 10:32:49;;;;;;;23.67;12.40;;;;;;;5.79;49.58;99468.19;4955547;28;20035;-74
2021/01/11 10:35:15;;;;;;;25.83;11.93;;;;;;;6.91;46.56;99458.38;4948651;29;20028;-74
2021/01/11 10:37:42;;;;;;;20.67;12.45;;;;;;;7.12;46.91;99439.09;4936848;29;20023;-79
2021/01/11 10:40:08;;;;;;;22.38;12.65;;;;;;;6.69;47.32;99447.22;4941483;28;20063;-78
2021/01/11 10:42:33;;;;;;;21.02;12.68;;;;;;;7.73;45.67;99447.72;4955552;28;20069;-77
2021/01/11 10:44:58;;;;;;;22.88;13.35;;;;;;;6.29;47.51;99432.63;4955432;29;20135;-76
2021/01/11 10:47:24;;;;;;;26.30;13.88;;;;;;;6.21;47.47;99443.31;4947272;29;20028;-75
2021/01/11 10:49:49;;;;;;;21.48;12.25;;;;;;;6.52;47.38;99434.72;4956207;28;20023;-77
2021/01/11 10:52:14;;;;;;;23.90;12.57;;;;;;;6.73;47.31;99448.59;4956464;29;20023;-72
2021/01/11 10:54:40;;;;;;;21.88;12.20;;;;;;;6.66;47.46;99423.34;4944756;29;20039;-73
2021/01/11 10:57:05;;;;;;;21.33;12.20;;;;;;;5.35;49.66;99427.91;4940727;29;20471;-73
2021/01/11 10:59:31;;;;;;;24.02;13.02;;;;;;;6.87;47.50;99432.84;4937559;29;20130;-73
2021/01/11 11:01:56;;;;;;;21.17;13.05;;;;;;;6.43;47.10;99403.44;4940571;29;20040;-74
2021/01/11 11:04:23;;;;;;;20.38;11.85;;;;;;;6.99;47.29;99401.91;4970109;28;20054;-77
2021/01/11 11:06:48;;;;;;;22.83;13.02;;;;;;;5.79;48.43;99390.34;4958463;28;20038;-70
2021/01/11 11:09:14;;;;;;;25.13;13.35;;;;;;;7.17;47.40;99416.06;4955520;28;20027;-78
2021/01/11 11:11:39;;;;;;;26.83;13.75;;;;;;;7.01;47.20;99419.56;4953559;29;20421;-67
2021/01/11 11:14:04;;;;;;;20.52;12.27;;;;;;;7.15;46.35;99423.47;4955964;29;20110;-68
2021/01/11 11:16:30;;;;;;;21.92;12.20;;;;;;;7.98;45.47;99405.44;4955813;28;20481;-80
2021/01/11 11:18:55;;;;;;;18.75;11.63;;;;;;;9.08;43.45;99416.28;4952362;29;20478;-69
2021/01/11 11:21:21;;;;;;;22.67;12.18;;;;;;;7.42;45.04;99403.47;4939265;29;20378;-72
2021/01/11 11:23:46;;;;;;;21.35;12.55;;;;;;;8.43;43.96;99414.75;4934382;28;20046;-70
2021/01/11 11:26:11;;;;;;;20.33;11.52;;;;;;;8.64;43.19;99400.66;4938850;29;20059;-71